weather.gov     
National Weather Service

Terminal Aerodrome Forecast
NWS Homepage
This page is being discontinued on March 12, 2014.
The same data is available at this site. Please update your bookmarks.
Thank you, and we apologize for the inconvenience.
Please send an email to SR-SRH.Webmaster@noaa.gov with any concerns.


Current Version
Previous Version:    01  02  03  04  05  06  07  08  09  10  11  12  13  14  15  16  17  18  19  20  21  22  23  24  25  26  27  28  29  30  
   31  32  33  34  35  
[Printable]
895
FTUS46 KLOX 250200 AAA
TAFSBP
TAF AMD
KSBP 250201Z 2502/2524 32016G23KT P6SM SCT012
     FM250400 32012KT P6SM SCT200
     FM250600 30006KT P6SM SCT200
     FM251000 VRB03KT P6SM SCT100 BKN200
     FM251600 32008KT P6SM VCSH BKN100 BKN200
     FM252000 30016KT P6SM VCSH SCT040 OVC080
      TEMPO 2520/2524 6SM -SHRA BKN040=


U.S. Dept. of Commerce
NOAA National Weather Service
1325 East West Highway
Silver Spring, MD 20910
E-mail: w-nws.webmaster@noaa.gov
Page last modified: May 16, 2007
NATIONAL WEATHER SERVICE: for Safety, for Work, for Fun - FOR LIFE